createdAt,value
2023-03-20T00:03:35.394Z,7.70
2023-03-20T00:08:57.796Z,7.80
2023-03-20T00:14:22.609Z,7.90
2023-03-20T00:19:44.356Z,8.00
2023-03-20T00:25:06.624Z,8.10
2023-03-20T00:30:30.811Z,8.20
2023-03-20T00:35:52.504Z,8.20
2023-03-20T00:41:27.662Z,8.30
2023-03-20T00:46:57.893Z,8.40
2023-03-20T00:52:21.215Z,8.50
2023-03-20T00:57:48.249Z,8.60
2023-03-20T01:03:17.706Z,8.60
2023-03-20T01:08:42.112Z,8.60
2023-03-20T01:14:04.320Z,8.70
2023-03-20T01:19:26.291Z,8.70
2023-03-20T01:24:48.599Z,8.70
2023-03-20T01:30:22.089Z,8.90
2023-03-20T01:35:44.647Z,8.90
2023-03-20T01:41:18.177Z,8.90
2023-03-20T01:46:40.749Z,9.00
2023-03-20T01:52:11.826Z,9.00
2023-03-20T01:57:33.421Z,9.00
2023-03-20T02:02:56.553Z,9.00
2023-03-20T02:08:45.303Z,9.10
2023-03-20T02:14:09.460Z,9.10
2023-03-20T02:20:00.717Z,9.10
2023-03-20T02:25:23.018Z,9.10
2023-03-20T02:31:22.048Z,9.10
2023-03-20T02:37:19.303Z,9.10
2023-03-20T02:43:20.633Z,9.20
2023-03-20T02:49:09.641Z,9.20
2023-03-20T02:54:43.662Z,9.20
2023-03-20T03:00:28.753Z,9.30
2023-03-20T03:06:21.202Z,9.30
2023-03-20T03:11:52.188Z,9.30
2023-03-20T03:17:16.825Z,9.30
2023-03-20T03:22:38.380Z,9.20
2023-03-20T03:28:19.366Z,9.30
2023-03-20T03:33:44.779Z,9.30
2023-03-20T03:39:22.561Z,9.20
2023-03-20T03:45:07.819Z,9.10
2023-03-20T03:50:48.639Z,9.20
2023-03-20T03:56:14.344Z,9.10
2023-03-20T04:01:38.048Z,9.10
2023-03-20T04:07:00.123Z,9.00
2023-03-20T04:12:40.781Z,8.90
2023-03-20T04:18:05.860Z,8.70
2023-03-20T04:23:28.505Z,8.60
2023-03-20T04:28:50.226Z,8.60
2023-03-20T04:34:27.372Z,8.60
2023-03-20T04:40:12.368Z,8.40
2023-03-20T04:45:37.012Z,8.40
2023-03-20T04:51:01.484Z,8.20
2023-03-20T04:56:35.107Z,8.20
2023-03-20T05:02:15.004Z,8.10
2023-03-20T05:07:37.181Z,8.10
2023-03-20T05:13:04.638Z,8.00
2023-03-20T05:18:58.195Z,8.10
2023-03-20T05:24:40.103Z,8.10
2023-03-20T05:30:30.899Z,8.10
2023-03-20T05:36:11.087Z,8.10
2023-03-20T05:41:46.692Z,8.30
2023-03-20T05:47:08.668Z,8.20
2023-03-20T05:52:53.056Z,8.20
2023-03-20T05:58:23.958Z,8.30
2023-03-20T06:04:03.726Z,8.30
2023-03-20T06:10:03.829Z,8.40
2023-03-20T06:15:26.451Z,8.50
2023-03-20T06:20:57.318Z,8.50
2023-03-20T06:26:22.718Z,8.50
2023-03-20T06:31:54.560Z,8.60
2023-03-20T06:37:23.730Z,8.70
2023-03-20T06:42:47.803Z,8.80
2023-03-20T06:48:12.138Z,8.80
2023-03-20T06:53:34.096Z,8.90
2023-03-20T06:59:01.067Z,9.00
2023-03-20T07:04:23.325Z,9.00
2023-03-20T07:09:49.665Z,9.00
2023-03-20T07:15:12.542Z,9.10
2023-03-20T07:20:34.442Z,9.50
2023-03-20T07:25:57.166Z,9.70
2023-03-20T07:31:25.040Z,10.10
2023-03-20T07:37:02.209Z,10.60
2023-03-20T07:42:25.930Z,10.80
2023-03-20T07:47:54.009Z,10.90
2023-03-20T07:53:15.793Z,10.80
2023-03-20T07:58:37.687Z,10.90
2023-03-20T08:03:59.284Z,10.80
2023-03-20T08:09:20.874Z,10.90
2023-03-20T08:14:44.328Z,11.10
2023-03-20T08:20:07.340Z,11.20
2023-03-20T08:25:32.749Z,11.30
2023-03-20T08:30:54.335Z,11.30
2023-03-20T08:36:17.363Z,11.30
2023-03-20T08:41:40.080Z,11.30
2023-03-20T08:47:02.227Z,11.30
2023-03-20T08:52:23.855Z,11.40
2023-03-20T08:57:46.262Z,11.30
2023-03-20T09:03:12.004Z,11.40
2023-03-20T09:08:34.918Z,11.50
2023-03-20T09:13:56.222Z,11.20
2023-03-20T09:19:18.978Z,11.50
2023-03-20T09:24:41.063Z,11.70
2023-03-20T09:30:02.936Z,11.80
2023-03-20T09:35:24.530Z,12.00
2023-03-20T09:41:28.000Z,12.10
2023-03-20T09:47:27.851Z,12.00
2023-03-20T09:53:18.612Z,12.10
2023-03-20T09:58:59.243Z,12.10
2023-03-20T10:04:46.323Z,12.20
2023-03-20T10:10:15.456Z,12.00
2023-03-20T10:16:28.060Z,12.00
2023-03-20T10:22:28.502Z,12.10
2023-03-20T10:28:22.853Z,12.20
2023-03-20T10:34:23.356Z,12.30
2023-03-20T10:40:01.127Z,12.30
2023-03-20T10:45:43.344Z,12.40
2023-03-20T10:51:29.614Z,12.20
2023-03-20T10:57:17.958Z,12.20
2023-03-20T11:03:10.080Z,11.90
2023-03-20T11:08:48.650Z,12.00
2023-03-20T11:14:39.595Z,11.90
2023-03-20T11:20:13.916Z,12.20
2023-03-20T11:25:47.055Z,12.30
2023-03-20T11:31:33.519Z,12.50
2023-03-20T11:37:10.180Z,12.60
2023-03-20T11:43:05.341Z,12.70
2023-03-20T11:49:07.335Z,12.80
2023-03-20T11:54:30.711Z,12.90
2023-03-20T11:59:52.293Z,12.80
2023-03-20T12:05:39.175Z,12.80
2023-03-20T12:11:39.474Z,12.70
2023-03-20T12:17:37.157Z,12.60
2023-03-20T12:23:47.873Z,11.90
2023-03-20T12:29:51.239Z,11.40
2023-03-20T12:35:30.686Z,11.60
2023-03-20T12:41:29.314Z,11.60
2023-03-20T12:47:23.083Z,11.60
2023-03-20T12:53:12.526Z,11.40
2023-03-20T12:59:05.183Z,11.60
2023-03-20T13:05:10.869Z,11.40
2023-03-20T13:10:44.840Z,11.20
2023-03-20T13:16:51.326Z,11.20
2023-03-20T13:29:01.077Z,11.30
2023-03-20T13:34:32.150Z,11.40
2023-03-20T13:40:03.476Z,11.30
2023-03-20T13:45:39.406Z,11.20
2023-03-20T13:51:40.898Z,11.40
2023-03-20T13:58:09.310Z,11.50
2023-03-20T14:03:58.711Z,11.20
2023-03-20T14:09:52.253Z,11.30
2023-03-20T14:15:15.865Z,11.00
2023-03-20T14:20:40.547Z,11.00
2023-03-20T14:26:29.704Z,10.80
2023-03-20T14:32:22.089Z,10.70
2023-03-20T14:38:12.546Z,10.50
2023-03-20T14:44:25.490Z,10.40
2023-03-20T14:49:56.810Z,10.20
2023-03-20T14:55:22.479Z,10.20
2023-03-20T15:00:48.081Z,10.20
2023-03-20T15:06:31.867Z,10.20
2023-03-20T15:12:20.491Z,10.30
2023-03-20T15:18:04.051Z,10.30
2023-03-20T15:23:36.707Z,10.40
2023-03-20T15:29:15.998Z,10.30
2023-03-20T15:34:41.205Z,10.10
2023-03-20T15:40:21.838Z,10.20
2023-03-20T15:45:45.016Z,10.30
2023-03-20T15:51:35.083Z,10.30
2023-03-20T15:57:15.615Z,10.30
2023-03-20T16:03:11.414Z,10.30
2023-03-20T16:08:47.027Z,10.20
2023-03-20T16:14:22.741Z,10.10
2023-03-20T16:19:46.261Z,10.10
2023-03-20T16:25:09.771Z,10.10
2023-03-20T16:30:36.925Z,10.10
2023-03-20T16:36:29.362Z,10.00
2023-03-20T16:42:21.622Z,9.90
2023-03-20T16:48:02.743Z,10.00
2023-03-20T16:53:46.525Z,10.00
2023-03-20T16:59:21.854Z,9.70
2023-03-20T17:04:47.887Z,9.70
2023-03-20T17:10:35.885Z,9.60
2023-03-20T17:16:12.272Z,9.80
2023-03-20T17:22:06.377Z,9.70
2023-03-20T17:27:52.280Z,9.70
2023-03-20T17:33:35.482Z,9.80
2023-03-20T17:39:06.387Z,9.80
2023-03-20T17:44:29.570Z,9.70
2023-03-20T17:49:52.168Z,9.70
2023-03-20T17:55:15.791Z,9.60
2023-03-20T18:00:37.903Z,9.50
2023-03-20T18:06:30.558Z,9.50
2023-03-20T18:12:15.001Z,9.50
2023-03-20T18:18:00.907Z,9.50
2023-03-20T18:23:44.015Z,9.50
2023-03-20T18:29:16.204Z,9.50
2023-03-20T18:34:41.566Z,9.40
2023-03-20T18:40:03.743Z,9.30
2023-03-20T18:45:29.273Z,9.30
2023-03-20T18:51:23.082Z,9.20
2023-03-20T18:57:09.268Z,9.10
2023-03-20T19:02:41.463Z,8.90
2023-03-20T19:08:03.577Z,9.00
2023-03-20T19:13:40.563Z,8.90
2023-03-20T19:19:15.789Z,8.90
2023-03-20T19:24:38.793Z,8.80
2023-03-20T19:30:00.594Z,8.80
2023-03-20T19:41:49.909Z,8.80
2023-03-20T19:47:33.079Z,8.90
2023-03-20T19:53:14.875Z,8.80
2023-03-20T19:58:39.716Z,8.70
2023-03-20T20:04:32.091Z,8.70
2023-03-20T20:10:19.217Z,8.60
2023-03-20T20:15:41.693Z,8.70
2023-03-20T20:27:25.067Z,8.50
2023-03-20T20:33:03.489Z,8.50
2023-03-20T20:38:50.487Z,8.40
2023-03-20T20:44:18.511Z,8.40
2023-03-20T20:49:41.648Z,8.30
2023-03-20T20:55:21.198Z,8.30
2023-03-20T21:00:51.230Z,8.40
2023-03-20T21:06:15.291Z,8.30
2023-03-20T21:11:51.788Z,8.40
2023-03-20T21:17:32.299Z,8.40
2023-03-20T21:23:09.160Z,8.40
2023-03-20T21:28:45.048Z,8.60
2023-03-20T21:34:17.764Z,8.50
2023-03-20T21:39:40.990Z,8.60
2023-03-20T21:58:02.465Z,8.80
2023-03-20T22:03:28.950Z,8.80
2023-03-20T22:21:07.415Z,8.70
2023-03-20T22:39:05.179Z,8.80
2023-03-20T22:49:59.681Z,8.80
2023-03-20T22:55:22.863Z,8.70
2023-03-20T23:00:44.456Z,8.70
2023-03-20T23:06:29.235Z,8.70
2023-03-20T23:12:14.050Z,8.80
2023-03-20T23:17:59.789Z,8.70
2023-03-20T23:23:38.605Z,8.60
2023-03-20T23:29:08.627Z,8.60
2023-03-20T23:34:31.428Z,8.60
2023-03-20T23:39:53.173Z,8.50
2023-03-20T23:45:20.649Z,8.70
2023-03-20T23:50:52.678Z,8.60
2023-03-20T23:56:31.946Z,8.60
